createdAt,value
2017-06-29T00:06:30.000Z,55.601
2017-06-29T00:16:30.000Z,55.621
2017-06-29T00:26:30.000Z,55.562
2017-06-29T00:36:30.000Z,55.592
2017-06-29T00:46:30.000Z,55.656
2017-06-29T00:56:30.000Z,55.729
2017-06-29T01:06:30.000Z,55.815
2017-06-29T01:16:30.000Z,55.842
2017-06-29T01:26:30.000Z,55.885
2017-06-29T01:36:30.000Z,55.958
2017-06-29T01:46:30.000Z,56.11
2017-06-29T01:56:30.000Z,56.052
2017-06-29T02:06:30.000Z,56.072
2017-06-29T02:16:30.000Z,56.069
2017-06-29T02:26:30.000Z,56.066
2017-06-29T02:36:30.000Z,56.041
2017-06-29T02:46:30.000Z,56.037
2017-06-29T02:56:30.000Z,55.98
2017-06-29T03:06:30.000Z,55.922
2017-06-29T03:16:30.000Z,55.769
2017-06-29T03:26:30.000Z,55.754
2017-06-29T03:36:30.000Z,55.665
2017-06-29T03:46:30.000Z,55.62
2017-06-29T03:56:30.000Z,55.519
2017-06-29T04:06:31.000Z,55.462
2017-06-29T04:16:32.000Z,55.384
2017-06-29T04:26:31.000Z,55.329
2017-06-29T04:36:31.000Z,55.251
2017-06-29T04:46:31.000Z,55.141
2017-06-29T04:56:31.000Z,55.034
2017-06-29T05:06:31.000Z,54.958
2017-06-29T05:16:31.000Z,54.902
2017-06-29T05:26:31.000Z,54.88
2017-06-29T05:36:31.000Z,54.666
2017-06-29T05:46:31.000Z,54.55
2017-06-29T05:56:31.000Z,54.433
2017-06-29T06:06:31.000Z,54.423
2017-06-29T06:16:31.000Z,54.299
2017-06-29T06:26:31.000Z,54.019
2017-06-29T06:36:31.000Z,54.334
2017-06-29T06:46:31.000Z,54.538
2017-06-29T06:56:31.000Z,54.403
2017-06-29T07:06:31.000Z,54.509
2017-06-29T07:16:31.000Z,54.495
2017-06-29T07:26:31.000Z,54.349
2017-06-29T07:36:31.000Z,54.405
2017-06-29T07:46:31.000Z,54.354
2017-06-29T07:56:33.000Z,54.496
2017-06-29T08:06:31.000Z,54.416
2017-06-29T08:16:31.000Z,54.372
2017-06-29T08:26:31.000Z,54.455
2017-06-29T08:36:31.000Z,54.357
2017-06-29T08:46:31.000Z,54.11
2017-06-29T08:56:32.000Z,53.875
2017-06-29T09:06:31.000Z,53.904
2017-06-29T09:16:31.000Z,53.851
2017-06-29T09:26:31.000Z,53.604
2017-06-29T09:36:31.000Z,53.53
2017-06-29T09:46:31.000Z,53.348
2017-06-29T10:06:31.000Z,54.545
2017-06-29T10:16:31.000Z,54.636
2017-06-29T10:26:31.000Z,54.553
2017-06-29T10:36:31.000Z,54.249
2017-06-29T10:46:31.000Z,53.817
2017-06-29T10:56:31.000Z,53.429
2017-06-29T11:06:32.000Z,53.507
2017-06-29T11:16:32.000Z,53.685
2017-06-29T11:26:31.000Z,52.94
2017-06-29T11:36:31.000Z,52.574
2017-06-29T11:46:31.000Z,52.419
2017-06-29T11:56:31.000Z,52.478
2017-06-29T12:06:31.000Z,52.377
2017-06-29T12:16:31.000Z,52.709
2017-06-29T12:26:31.000Z,52.697
2017-06-29T12:36:32.000Z,52.631
2017-06-29T12:46:32.000Z,52.687
2017-06-29T12:56:32.000Z,53.028
2017-06-29T13:06:32.000Z,52.929
2017-06-29T13:16:32.000Z,52.81
2017-06-29T13:26:32.000Z,52.68
2017-06-29T13:36:32.000Z,52.71
2017-06-29T13:46:32.000Z,52.632
2017-06-29T13:56:32.000Z,52.599
2017-06-29T14:06:32.000Z,52.502
2017-06-29T14:16:32.000Z,52.416
2017-06-29T14:26:32.000Z,52.494
2017-06-29T14:36:32.000Z,52.417
2017-06-29T14:46:32.000Z,52.365
2017-06-29T14:56:32.000Z,52.387
2017-06-29T15:06:32.000Z,52.279
2017-06-29T15:16:32.000Z,52.357
2017-06-29T15:26:32.000Z,53.263
2017-06-29T15:36:32.000Z,54.008
2017-06-29T15:46:32.000Z,54.644
2017-06-29T15:56:32.000Z,54.797
2017-06-29T16:06:32.000Z,54.856
2017-06-29T16:16:32.000Z,55.242
2017-06-29T16:26:32.000Z,55.813
2017-06-29T16:36:32.000Z,55.978
2017-06-29T16:46:32.000Z,56.453
2017-06-29T16:56:32.000Z,56.519
2017-06-29T17:06:32.000Z,56.834
2017-06-29T17:16:33.000Z,57.042
2017-06-29T17:26:32.000Z,56.966
2017-06-29T17:36:32.000Z,57.263
2017-06-29T17:46:32.000Z,57.262
2017-06-29T17:56:32.000Z,57.293
2017-06-29T18:06:32.000Z,57.106
2017-06-29T18:16:32.000Z,57.135
2017-06-29T18:26:32.000Z,57.518
2017-06-29T18:36:32.000Z,57.891
2017-06-29T18:46:32.000Z,57.629
2017-06-29T18:56:32.000Z,57.841
2017-06-29T19:06:32.000Z,57.832
2017-06-29T19:16:32.000Z,57.931
2017-06-29T19:26:32.000Z,57.755
2017-06-29T19:36:32.000Z,57.944
2017-06-29T19:46:32.000Z,57.327
2017-06-29T19:56:32.000Z,56.826
2017-06-29T20:06:32.000Z,57.692
2017-06-29T20:16:32.000Z,56.431
2017-06-29T20:26:32.000Z,56
2017-06-29T20:36:32.000Z,56.681
2017-06-29T20:46:32.000Z,58.178
2017-06-29T20:56:33.000Z,57.599
2017-06-29T21:06:33.000Z,57.718
2017-06-29T21:16:33.000Z,57.665
2017-06-29T21:26:33.000Z,57.907
2017-06-29T21:36:33.000Z,57.84
2017-06-29T21:46:33.000Z,57.919
2017-06-29T21:56:33.000Z,58.389
2017-06-29T22:06:33.000Z,58.426
2017-06-29T22:16:33.000Z,58.454
2017-06-29T22:26:33.000Z,58.01
2017-06-29T22:36:33.000Z,58.222
2017-06-29T22:46:33.000Z,57.998
2017-06-29T22:56:33.000Z,57.718
2017-06-29T23:06:33.000Z,57.713
2017-06-29T23:16:33.000Z,57.611
2017-06-29T23:26:33.000Z,57.518
2017-06-29T23:36:33.000Z,57.438
2017-06-29T23:46:33.000Z,57.325
2017-06-29T23:56:33.000Z,57.253
